Terminal Aerodrome Forecast
Issued by NWS Wilmington, NC

Current Version | Previous Version | Graphics & Text | Print | Product List | Glossary Off
Versions: 1 2 3 4 5 6 7 8 9 10 11 12 13

000
FTUS42 KILM 180524
TAFILM
TAF
KILM 180524Z 1806/1906 00000KT P6SM SKC
     FM181400 21010G18KT P6SM FEW030 SCT250
     FM182300 21013G22KT P6SM BKN250=

USA.gov is the U.S. government's official web portal to all federal, state and local government web resources and services.